Destin, FL

9:15 AM CST on March 04, 2015 (GMT -0600)
Destin Water Users | Change Station
CLOSE
Current Station
Personal Weather Station
Location: Destin, FL
Elevation: 26 ft
Nearby Weather Stations
Active Advisory: Dense Fog Advisory

Elev 26 ft 30.39 °N, 86.48 °W | Updated 35 seconds ago

Fog
Fog
64.4 °F
Feels Like 64.4 °F
N
3.5
Wind Variable Wind from ENE
Gusts 6.0 mph

Today
High -- | Low -- °F
--% Chance of Precip.
Yesterday
High -- | Low -- °F
Precip. -- in
6:09 AM 5:46 PM
Waxing Gibbous, 99% visible
Pressure 30.09 in
Visibility 0.2 miles
Clouds
Dew Point 64 °F
Humidity 98%
Rainfall 0.00 in
Snow Depth Not available.
UV Not available.
Pollen 9.10 out of 12
Air Quality Not available.
Flu Activity Not available.
METAR KDTS 041453Z AUTO 14010KT 1/4SM FG VV002 18/18 A3009 RMK AO2 SLP188 T01780178 51012 TSNO

More Conditions Fewer Conditions

Pressure 30.09 in
Visibility 0.2 miles
Clouds
Dew Point 64 °F
Humidity 98%
Rainfall 0.00 in
Snow Depth Not available.
UV Not available.
Pollen 9.10 out of 12
Air Quality Not available.
Flu Activity Not available.
METAR KDTS 041453Z AUTO 14010KT 1/4SM FG VV002 18/18 A3009 RMK AO2 SLP188 T01780178 51012 TSNO

More Conditions Fewer Conditions

10-Day Weather Forecast

Almanac

Astronomy

Mar. 04, 2015 Rise Set
Actual Time
Civil Twilight
Nautical Twilight
Astronomical Twilight
Moon
Length of Visible Light
Length of Day
Tomorrow will be .
, % of the Moon is Illuminated

Today's Extremes

State Highs State Lows

Community

WunderPhotos

Upload Photos

1,802,487 photos uploaded!

WunderBlogs® & News

Nearby

Air Quality

  Air Quality AQ Index Pollutant
Not available.

Snow Depth

Station Depth Elevation

Earthquake Activity

City Distance Mag. Time & Date
Minimum magnitude displayed is 2.5.

Coastal Water Temperatures

Place Temperature

Nearby Weather Stations

Dense Fog Advisory
Statement as of 9:03 AM CST on March 04, 2015

... Dense fog advisory now in effect until noon CST today...

* visibility... frequently reduced to one quarter mile or less.

* Impacts... reduced visibility will result in hazardous travel
conditions this morning.

Precautionary/preparedness actions...

A dense fog advisory means visibilities will frequently be
reduced to less than one quarter mile. If driving... slow down...
use your low beam headlights... and leave plenty of distance ahead
of you.